KPOU/POU METAR and TAF weather

Enter ICAO airport designator
Station Type Date Time Source
KPOU METAR 2019/04/18 21:53 UTC NOAA

KPOU 182153Z 00000KT 10SM OVC011 13/11 A2992 RMK AO2 SLP130 T01280106


Station Type Date Time Source
KPOU Decoded METAR 2019/04/18 21:53 UTC NOAA

POUGHKEEPSIE DUTCHESS CTY, NY, United States (KPOU) 41-38N 073-53W 46M
Apr 18, 2019 - 05:53 PM EDT / 2019.04.18 2153 UTC
Wind: Calm:0
Visibility: 10 mile(s):0
Sky conditions: overcast
Temperature: 55.0 F (12.8 C)
Dew Point: 51.1 F (10.6 C)
Relative Humidity: 86%
Pressure (altimeter): 29.92 in. Hg (1013 hPa)
ob: KPOU 182153Z 00000KT 10SM OVC011 13/11 A2992 RMK AO2 SLP130 T01280106
cycle: 22

Station Type Date Time Source
KPOU TAF 2019/04/18 18:42 UTC NOAA

TAF KPOU 181741Z 1818/1918 14015G23KT P6SM OVC025
FM190000 16008KT P6SM SCT025 SCT250 WS020/22040KT
FM190500 18010KT P6SM BKN250 WS020/23045KT
FM191100 19012KT P6SM BKN025
FM191400 19010KT P6SM OVC015

Example: see airport list